Time;durP1;ratioP1;P1;durP2;ratioP2;P2;SDS_P1;SDS_P2;PMS_P1;PMS_P2;Temp;Humidity;BMP_temperature;BMP_pressure;BME280_temperature;BME280_humidity;BME280_pressure;Samples;Min_cycle;Max_cycle;Signal;HPM_P1;HPM_P2
2022/08/15 00:01:12;;;;;;;23.20;20.70;;;20.90;1.00;;;;;;5037464;28;20033;-78
2022/08/15 00:03:44;;;;;;;23.30;20.67;;;20.80;1.00;;;;;;5037659;28;20021;-78
2022/08/15 00:06:16;;;;;;;24.73;20.80;;;20.70;1.00;;;;;;5038727;28;20022;-78
2022/08/15 00:08:50;;;;;;;28.48;21.13;;;20.60;1.00;;;;;;5037994;28;20021;-78
2022/08/15 00:11:23;;;;;;;23.48;20.95;;;20.60;1.00;;;;;;5037159;28;20099;-78
2022/08/15 00:13:54;;;;;;;23.33;20.48;;;20.50;1.00;;;;;;5038638;28;20128;-78
2022/08/15 00:16:20;;;;;;;23.27;20.88;;;20.50;1.00;;;;;;5038286;28;20037;-78
2022/08/15 00:18:47;;;;;;;22.25;19.95;;;20.40;1.00;;;;;;5036116;28;20033;-78
2022/08/15 00:21:14;;;;;;;23.30;20.90;;;20.40;1.00;;;;;;5036541;28;20388;-78
2022/08/15 00:23:40;;;;;;;24.20;21.63;;;20.30;1.00;;;;;;5037857;28;20056;-78
2022/08/15 00:26:07;;;;;;;21.63;19.00;;;20.30;1.00;;;;;;5037994;28;20018;-78
2022/08/15 00:28:33;;;;;;;26.50;21.80;;;20.30;1.00;;;;;;5037075;28;20026;-78
2022/08/15 00:30:59;;;;;;;24.67;20.35;;;20.20;1.00;;;;;;5036774;28;20071;-78
2022/08/15 00:33:25;;;;;;;21.92;18.98;;;20.20;1.00;;;;;;5035840;23;20485;-74
2022/08/15 00:35:51;;;;;;;24.85;20.25;;;20.20;1.00;;;;;;5011450;28;20022;-73
2022/08/15 00:38:20;;;;;;;22.13;19.48;;;20.20;1.00;;;;;;5011552;28;20466;-73
2022/08/15 00:43:40;;;;;;;21.23;19.02;;;20.10;1.00;;;;;;5022921;28;20041;-74
2022/08/15 00:46:10;;;;;;;19.55;17.55;;;20.00;1.00;;;;;;5020221;28;20090;-73
2022/08/15 00:48:41;;;;;;;26.63;20.80;;;20.10;1.00;;;;;;5020056;28;20021;-74
2022/08/15 00:51:33;;;;;;;21.17;18.98;;;20.10;1.00;;;;;;5004979;28;20162;-74
2022/08/15 00:54:25;;;;;;;23.80;21.13;;;20.00;1.00;;;;;;4995137;28;20412;-73
2022/08/15 00:57:00;;;;;;;24.02;20.77;;;20.10;1.00;;;;;;4990261;28;20034;-73
2022/08/15 00:59:31;;;;;;;22.35;19.65;;;20.00;1.00;;;;;;5015523;28;20029;-73
2022/08/15 01:01:59;;;;;;;24.27;20.98;;;20.00;1.00;;;;;;5034394;28;20113;-73
2022/08/15 01:04:27;;;;;;;25.13;21.13;;;20.10;1.00;;;;;;5028403;28;20077;-74
2022/08/15 01:06:56;;;;;;;22.88;20.48;;;20.00;1.00;;;;;;5023920;28;20022;-73
2022/08/15 01:09:22;;;;;;;24.05;21.40;;;19.90;1.00;;;;;;4997978;28;20085;-73
2022/08/15 01:12:15;;;;;;;23.15;20.75;;;19.90;1.00;;;;;;5015277;28;20026;-73
2022/08/15 01:14:45;;;;;;;23.65;21.20;;;19.90;1.00;;;;;;5031606;28;20095;-73
2022/08/15 01:17:11;;;;;;;;;;;20.00;1.00;;;;;;5035523;28;20021;-73
2022/08/15 01:19:48;;;;;;;21.00;18.80;;;19.90;1.00;;;;;;5035031;28;20357;-73
2022/08/15 01:22:32;;;;;;;20.90;18.08;;;19.90;1.00;;;;;;5035484;28;20024;-73
2022/08/15 01:25:28;;;;;;;22.00;18.42;;;19.90;1.00;;;;;;5034967;28;20453;-73
2022/08/15 01:28:09;;;;;;;19.55;17.45;;;20.00;1.00;;;;;;5023881;28;20037;-73
2022/08/15 01:30:42;;;;;;;22.58;20.25;;;20.10;1.00;;;;;;5034727;28;20105;-74
2022/08/15 01:33:09;;;;;;;23.52;19.35;;;20.00;1.00;;;;;;5034457;28;20056;-73
2022/08/15 01:35:35;;;;;;;23.30;20.45;;;19.90;1.00;;;;;;5034641;28;20465;-73
2022/08/15 01:38:04;;;;;;;23.15;20.77;;;19.90;1.00;;;;;;5034569;28;20028;-73
2022/08/15 01:41:08;;;;;;;22.65;19.73;;;19.70;1.00;;;;;;5034290;28;20025;-73
2022/08/15 01:43:41;;;;;;;20.73;18.58;;;19.70;1.00;;;;;;5034590;28;20021;-73
2022/08/15 01:46:10;;;;;;;20.23;17.38;;;19.70;1.00;;;;;;5034474;28;20041;-73
2022/08/15 01:48:44;;;;;;;21.30;19.08;;;19.70;1.00;;;;;;5020000;28;20021;-73
2022/08/15 01:51:12;;;;;;;20.38;18.25;;;19.60;1.00;;;;;;5014688;28;20069;-73
2022/08/15 01:54:07;;;;;;;20.80;17.08;;;19.50;1.00;;;;;;5014422;28;20065;-73
2022/08/15 01:56:50;;;;;;;21.05;17.20;;;19.50;1.00;;;;;;4984082;28;20058;-73
2022/08/15 01:59:20;;;;;;;20.35;17.70;;;19.40;1.00;;;;;;4997975;28;20469;-73
2022/08/15 02:01:52;;;;;;;20.55;17.88;;;19.40;1.00;;;;;;5014333;28;20018;-73
2022/08/15 02:04:21;;;;;;;22.15;19.38;;;19.30;1.00;;;;;;5014400;28;20033;-73
2022/08/15 02:06:47;;;;;;;19.15;17.15;;;19.20;1.00;;;;;;5014213;28;20026;-73
2022/08/15 02:09:16;;;;;;;18.75;16.80;;;19.20;1.00;;;;;;5013956;28;20088;-73
2022/08/15 02:11:44;;;;;;;18.73;16.13;;;19.30;1.00;;;;;;5014201;28;20026;-73
2022/08/15 02:14:11;;;;;;;23.30;16.88;;;19.30;1.00;;;;;;5014061;28;20030;-73
2022/08/15 02:16:38;;;;;;;17.33;15.68;;;19.40;1.00;;;;;;5014319;28;20033;-73
2022/08/15 02:19:07;;;;;;;17.73;15.85;;;19.50;1.00;;;;;;5014025;28;20049;-73
2022/08/15 02:21:34;;;;;;;20.30;16.83;;;19.50;1.00;;;;;;5014337;28;20061;-73
2022/08/15 02:24:00;;;;;;;18.65;16.63;;;19.60;1.00;;;;;;5014096;28;20042;-73
2022/08/15 02:26:26;;;;;;;19.63;16.90;;;19.40;1.00;;;;;;4994318;28;20073;-73
2022/08/15 02:28:53;;;;;;;17.60;15.90;;;19.30;1.00;;;;;;4994343;28;20054;-73
2022/08/15 02:31:22;;;;;;;18.55;15.65;;;19.30;1.00;;;;;;4994215;28;20029;-73
2022/08/15 02:33:55;;;;;;;18.05;16.15;;;19.40;1.00;;;;;;4993914;28;20742;-73
2022/08/15 02:36:22;;;;;;;18.75;16.52;;;19.40;1.00;;;;;;4994325;28;20026;-73
2022/08/15 02:38:49;;;;;;;17.60;15.70;;;19.30;1.00;;;;;;5016084;28;20018;-73
2022/08/15 02:41:30;;;;;;;16.83;15.13;;;19.50;1.00;;;;;;5013471;28;20072;-73
2022/08/15 02:43:56;;;;;;;19.10;16.60;;;19.60;1.00;;;;;;5028197;28;20034;-73
2022/08/15 02:46:23;;;;;;;21.52;18.60;;;19.50;1.00;;;;;;5023101;28;20064;-73
2022/08/15 02:48:49;;;;;;;22.20;18.65;;;19.40;1.00;;;;;;5013780;28;20025;-73
2022/08/15 02:51:17;;;;;;;22.13;19.33;;;19.20;1.00;;;;;;5013357;28;20037;-73
2022/08/15 02:53:48;;;;;;;21.90;19.60;;;19.30;1.00;;;;;;5013405;28;20048;-73
2022/08/15 02:56:17;;;;;;;23.58;19.13;;;19.20;1.00;;;;;;5011898;28;20418;-73
2022/08/15 02:58:44;;;;;;;18.15;16.23;;;19.20;1.00;;;;;;5013151;28;20033;-73
2022/08/15 03:01:10;;;;;;;20.30;17.63;;;19.20;1.00;;;;;;5012890;28;20026;-73
2022/08/15 03:03:39;;;;;;;18.63;16.63;;;19.40;1.00;;;;;;5012971;28;20484;-73
2022/08/15 03:06:10;;;;;;;18.15;16.00;;;19.40;1.00;;;;;;5013158;28;20026;-73
2022/08/15 03:08:37;;;;;;;22.08;18.20;;;19.40;1.00;;;;;;5013433;28;20466;-73
2022/08/15 03:11:04;;;;;;;23.00;18.08;;;19.40;1.00;;;;;;5013142;28;20539;-73
2022/08/15 03:13:31;;;;;;;22.63;18.70;;;19.20;1.00;;;;;;5012814;28;20026;-73
2022/08/15 03:15:57;;;;;;;21.10;17.27;;;19.10;1.00;;;;;;5013176;28;20022;-73
2022/08/15 03:18:24;;;;;;;18.85;16.25;;;19.20;1.00;;;;;;5012944;28;20481;-73
2022/08/15 03:20:51;;;;;;;22.13;18.63;;;19.20;1.00;;;;;;5012368;28;20084;-73
2022/08/15 03:23:18;;;;;;;19.00;15.77;;;19.20;1.00;;;;;;5012879;28;20053;-73
2022/08/15 03:25:48;;;;;;;19.67;15.98;;;19.20;1.00;;;;;;5012962;28;20481;-73
2022/08/15 03:28:16;;;;;;;20.70;17.00;;;19.40;1.00;;;;;;5012872;28;20041;-73
2022/08/15 03:30:42;;;;;;;21.25;17.75;;;19.40;1.00;;;;;;5012831;28;20068;-73
2022/08/15 03:33:08;;;;;;;17.08;14.88;;;19.20;1.00;;;;;;5012328;28;20054;-73
2022/08/15 03:35:42;;;;;;;19.15;16.05;;;19.30;1.00;;;;;;5012768;28;20405;-73
2022/08/15 03:38:08;;;;;;;20.35;17.85;;;19.30;99.90;;;;;;5026826;28;20057;-73
2022/08/15 03:40:34;;;;;;;22.95;18.42;;;19.10;1.00;;;;;;5013906;28;20054;-73
2022/08/15 03:43:06;;;;;;;17.50;15.65;;;18.90;1.00;;;;;;5012596;28;20018;-72
2022/08/15 03:45:33;;;;;;;23.27;18.92;;;18.90;1.00;;;;;;5020674;28;20038;-73
2022/08/15 03:48:01;;;;;;;22.35;19.27;;;18.90;1.00;;;;;;5032294;28;20021;-73
2022/08/15 03:50:28;;;;;;;20.98;17.45;;;18.80;1.00;;;;;;5032259;28;20120;-73
2022/08/15 03:53:03;;;;;;;25.33;19.33;;;18.90;1.00;;;;;;5012707;28;20050;-73
2022/08/15 03:55:31;;;;;;;22.50;17.13;;;19.00;1.00;;;;;;5012522;28;20026;-73
2022/08/15 03:57:58;;;;;;;22.23;18.13;;;19.00;1.00;;;;;;5012388;28;20028;-73
2022/08/15 04:00:27;;;;;;;24.38;18.42;;;19.00;1.00;;;;;;5012505;28;20079;-73
2022/08/15 04:03:01;;;;;;;24.83;20.25;;;19.00;1.00;;;;;;5012560;28;20018;-73
2022/08/15 04:05:27;;;;;;;26.92;21.65;;;18.90;1.00;;;;;;5012408;28;20082;-73
2022/08/15 04:07:52;;;;;;;27.67;21.92;;;18.90;1.00;;;;;;5012418;28;20049;-73
2022/08/15 04:10:18;;;;;;;26.75;19.20;;;18.90;1.00;;;;;;5012195;28;20080;-73
2022/08/15 04:12:45;;;;;;;26.10;20.75;;;18.80;1.00;;;;;;5012302;28;20036;-72
2022/08/15 04:15:13;;;;;;;27.88;21.13;;;18.80;1.00;;;;;;5012188;28;20044;-73
2022/08/15 04:17:39;;;;;;;26.35;20.67;;;18.70;1.00;;;;;;5012244;28;20033;-73
2022/08/15 04:20:10;;;;;;;27.50;21.10;;;18.70;1.00;;;;;;5012111;28;20022;-73
2022/08/15 04:22:39;;;;;;;23.67;18.65;;;18.70;1.00;;;;;;5012350;28;20108;-73
2022/08/15 04:25:13;;;;;;;24.48;19.75;;;18.80;1.00;;;;;;5023447;28;20033;-73
2022/08/15 04:27:39;;;;;;;24.63;19.45;;;18.90;1.00;;;;;;5032046;28;20373;-73
2022/08/15 04:30:07;;;;;;;23.58;17.95;;;19.00;1.00;;;;;;5031935;28;20101;-73
2022/08/15 04:32:32;;;;;;;24.23;19.48;;;19.00;1.00;;;;;;5034256;28;20054;-73
2022/08/15 04:35:02;;;;;;;23.55;18.20;;;19.10;1.00;;;;;;5035708;28;20021;-73
2022/08/15 04:37:28;;;;;;;22.98;17.52;;;19.10;1.00;;;;;;5036119;28;20048;-72
2022/08/15 04:39:56;;;;;;;22.02;17.67;;;19.30;99.90;;;;;;5035657;28;20087;-73
2022/08/15 04:42:24;;;;;;;22.55;17.67;;;19.10;99.90;;;;;;5035863;28;20100;-73
2022/08/15 04:44:50;;;;;;;21.42;17.30;;;19.20;99.90;;;;;;5012141;28;20057;-72
2022/08/15 04:47:16;;;;;;;19.95;17.13;;;19.30;99.90;;;;;;5015848;28;20050;-73
2022/08/15 04:49:44;;;;;;;21.08;17.42;;;19.40;99.90;;;;;;5015699;28;20022;-73
2022/08/15 04:52:16;;;;;;;22.15;18.02;;;19.40;99.90;;;;;;5015670;28;20362;-73
2022/08/15 04:54:43;;;;;;;20.92;16.85;;;19.60;99.90;;;;;;5015449;28;20018;-73
2022/08/15 04:57:10;;;;;;;17.70;15.80;;;19.60;99.90;;;;;;5015661;28;20366;-73
2022/08/15 04:59:36;;;;;;;22.60;18.23;;;19.70;99.90;;;;;;4997874;28;20064;-73
2022/08/15 05:02:04;;;;;;;20.65;16.58;;;19.70;99.90;;;;;;5015609;28;20026;-72
2022/08/15 05:04:29;;;;;;;18.85;15.57;;;19.80;99.90;;;;;;4997761;28;20482;-74
2022/08/15 05:06:55;;;;;;;18.20;15.18;;;19.90;99.90;;;;;;5015328;28;20061;-74
2022/08/15 05:09:20;;;;;;;21.05;16.23;;;20.00;99.90;;;;;;5015361;28;20028;-74
2022/08/15 05:11:46;;;;;;;21.27;16.63;;;20.10;99.90;;;;;;5015390;28;20026;-73
2022/08/15 05:14:12;;;;;;;20.10;17.08;;;20.20;99.90;;;;;;5015193;28;20030;-74
2022/08/15 05:16:38;;;;;;;17.23;15.18;;;20.30;99.90;;;;;;5015303;28;20108;-74
2022/08/15 05:19:04;;;;;;;18.98;15.75;;;20.30;99.90;;;;;;5015032;28;20465;-74
2022/08/15 05:21:30;;;;;;;19.65;15.85;;;20.50;99.90;;;;;;5015076;28;20022;-74
2022/08/15 05:23:55;;;;;;;20.98;15.77;;;20.50;99.90;;;;;;5014905;28;20052;-74
2022/08/15 05:26:21;;;;;;;18.92;15.82;;;20.50;99.90;;;;;;5014856;28;20418;-73
2022/08/15 05:28:47;;;;;;;18.95;15.30;;;20.70;99.90;;;;;;5015041;28;20029;-74
2022/08/15 05:31:13;;;;;;;18.95;15.93;;;20.90;99.90;;;;;;5014850;28;20473;-74
2022/08/15 05:33:42;;;;;;;16.60;14.43;;;21.90;99.90;;;;;;5014557;28;20104;-74
2022/08/15 05:36:09;;;;;;;19.30;14.38;;;22.70;99.90;;;;;;5015159;28;20033;-73
2022/08/15 05:39:06;;;;;;;16.38;14.32;;;22.90;99.90;;;;;;5014746;28;20029;-74
2022/08/15 05:41:45;;;;;;;19.50;15.00;;;22.70;99.90;;;;;;5013410;28;20386;-73
2022/08/15 05:44:32;;;;;;;20.48;16.98;;;22.60;99.90;;;;;;5013830;28;20113;-73
2022/08/15 05:47:12;;;;;;;19.70;16.73;;;22.80;99.90;;;;;;5014539;28;20025;-74
2022/08/15 05:49:50;;;;;;;16.60;14.13;;;23.00;99.90;;;;;;4996974;28;20034;-73
2022/08/15 05:52:51;;;;;;;22.65;17.83;;;23.00;99.90;;;;;;5014739;28;20021;-73
2022/08/15 05:55:24;;;;;;;20.98;17.88;;;23.00;99.90;;;;;;5006467;28;20046;-73
2022/08/15 05:58:14;;;;;;;17.10;15.20;;;23.30;99.90;;;;;;5023769;28;20401;-73
2022/08/15 06:00:46;;;;;;;21.33;17.48;;;23.90;99.90;;;;;;5026056;28;20137;-73
2022/08/15 06:03:17;;;;;;;20.48;17.67;;;24.40;99.90;;;;;;5034234;28;20056;-73
2022/08/15 06:05:48;;;;;;;21.23;16.92;;;24.50;99.90;;;;;;5030534;28;20033;-73
2022/08/15 06:08:20;;;;;;;23.13;18.25;;;25.80;99.90;;;;;;5013967;28;20034;-73
2022/08/15 06:11:03;;;;;;;18.48;15.93;;;27.10;99.90;;;;;;5014039;28;20022;-73
2022/08/15 06:13:34;;;;;;;17.60;15.07;;;27.60;99.90;;;;;;4996454;28;20034;-73
2022/08/15 06:16:18;;;;;;;19.40;15.98;;;27.70;99.90;;;;;;5014010;28;20030;-74
2022/08/15 06:18:45;;;;;;;19.67;16.38;;;26.60;99.90;;;;;;5013989;28;20092;-73
2022/08/15 06:21:28;;;;;;;16.20;14.50;;;26.10;99.90;;;;;;5013713;28;20022;-73
2022/08/15 06:24:28;;;;;;;20.65;16.73;;;25.80;99.90;;;;;;5013930;28;20030;-73
2022/08/15 06:27:29;;;;;;;20.77;17.52;;;25.50;99.90;;;;;;5013814;28;20058;-73
2022/08/15 06:30:07;;;;;;;20.42;18.23;;;25.40;99.90;;;;;;5010479;28;20069;-74
2022/08/15 06:33:19;;;;;;;19.30;16.73;;;25.30;99.90;;;;;;5013136;28;20488;-73
2022/08/15 06:36:06;;;;;;;20.70;16.90;;;24.80;99.90;;;;;;5013667;28;20065;-73
2022/08/15 06:38:44;;;;;;;17.65;15.75;;;28.60;99.90;;;;;;5013593;28;20493;-74
2022/08/15 06:41:30;;;;;;;20.52;17.17;;;27.70;99.90;;;;;;4995825;28;20044;-74
2022/08/15 06:43:57;;;;;;;18.92;15.82;;;29.00;99.90;;;;;;5013403;28;20058;-74
2022/08/15 06:46:27;;;;;;;19.35;16.38;;;29.30;99.90;;;;;;5013091;28;20025;-74
2022/08/15 06:48:53;;;;;;;19.95;16.25;;;31.00;99.90;;;;;;5013592;28;20044;-74
2022/08/15 06:51:20;;;;;;;18.60;16.58;;;30.00;99.90;;;;;;5013447;28;20369;-74
2022/08/15 06:53:54;;;;;;;18.08;16.10;;;30.40;99.90;;;;;;5013345;28;20033;-74
2022/08/15 06:56:27;;;;;;;17.48;15.55;;;29.50;99.90;;;;;;5012346;28;20022;-72
2022/08/15 06:59:12;;;;;;;16.70;15.02;;;29.40;99.90;;;;;;5013067;28;20026;-72
2022/08/15 07:02:10;;;;;;;16.85;14.63;;;30.00;99.90;;;;;;5018595;28;20025;-72
2022/08/15 07:05:07;;;;;;;15.45;13.70;;;29.20;99.90;;;;;;4989813;28;20117;-72
2022/08/15 07:07:46;;;;;;;14.80;13.30;;;29.00;99.90;;;;;;5001307;28;20033;-72
2022/08/15 07:10:27;;;;;;;14.40;12.90;;;29.60;99.90;;;;;;5013006;28;20068;-72
2022/08/15 07:13:11;;;;;;;14.85;13.32;;;30.40;99.90;;;;;;5021764;28;20052;-71
2022/08/15 07:15:52;;;;;;;13.48;12.15;;;30.80;99.90;;;;;;5000010;28;20366;-72
2022/08/15 07:18:30;;;;;;;14.18;12.45;;;30.60;99.90;;;;;;5014542;28;20026;-72
2022/08/15 07:21:09;;;;;;;14.30;12.60;;;30.50;99.90;;;;;;5012665;28;20021;-73
2022/08/15 07:23:38;;;;;;;13.05;11.80;;;30.10;99.90;;;;;;5009955;28;20016;-71
2022/08/15 07:26:11;;;;;;;14.10;12.30;;;30.20;99.90;;;;;;5013050;28;20083;-72
2022/08/15 07:28:41;;;;;;;12.95;11.43;;;30.50;99.90;;;;;;5013106;28;20477;-72
2022/08/15 07:31:22;;;;;;;13.10;11.73;;;30.50;99.90;;;;;;5012857;28;20477;-72
2022/08/15 07:33:52;;;;;;;16.42;11.68;;;30.20;99.90;;;;;;5006398;28;20045;-73
2022/08/15 07:36:29;;;;;;;13.93;10.77;;;29.90;99.90;;;;;;5012756;28;20014;-73
2022/08/15 07:38:55;;;;;;;13.93;11.70;;;30.00;99.90;;;;;;5012660;28;20405;-72
2022/08/15 07:41:33;;;;;;;11.63;10.30;;;30.00;99.90;;;;;;5028997;28;20056;-73
2022/08/15 07:44:15;;;;;;;11.70;10.38;;;30.10;99.90;;;;;;4995099;28;20066;-73
2022/08/15 07:46:51;;;;;;;11.40;10.15;;;32.30;99.90;;;;;;5012804;28;20057;-72
2022/08/15 07:49:20;;;;;;;10.68;9.52;;;36.30;99.90;;;;;;5012667;28;20029;-73
2022/08/15 07:52:01;;;;;;;10.20;9.20;;;38.40;99.90;;;;;;5012621;28;20029;-73
2022/08/15 07:54:48;;;;;;;10.70;9.40;;;39.90;99.90;;;;;;5012526;28;20034;-73
2022/08/15 07:57:33;;;;;;;10.65;8.98;;;41.20;99.90;;;;;;5007558;28;20068;-73
2022/08/15 08:00:28;;;;;;;9.20;8.35;;;42.80;99.90;;;;;;5027697;28;20432;-73
2022/08/15 08:03:08;;;;;;;9.75;8.75;;;42.30;99.90;;;;;;5006691;28;20022;-74
2022/08/15 08:05:53;;;;;;;10.02;9.02;;;42.60;97.80;;;;;;5012195;28;20417;-74
2022/08/15 08:08:23;;;;;;;10.65;9.65;;;43.70;96.90;;;;;;5016482;28;20105;-74
2022/08/15 08:11:01;;;;;;;9.35;8.43;;;45.30;92.60;;;;;;5016590;28;20466;-74
2022/08/15 08:13:46;;;;;;;9.70;8.75;;;45.50;88.10;;;;;;5015995;28;20049;-74
2022/08/15 08:16:24;;;;;;;12.10;10.00;;;46.20;82.20;;;;;;5021888;28;20033;-75
2022/08/15 08:18:49;;;;;;;11.15;9.88;;;46.30;79.00;;;;;;5016518;28;20030;-75
2022/08/15 08:21:28;;;;;;;10.93;9.80;;;47.70;73.20;;;;;;5016020;28;20057;-75
2022/08/15 08:23:57;;;;;;;12.98;11.35;;;45.70;69.70;;;;;;5016195;28;20458;-75
2022/08/15 08:27:04;;;;;;;12.82;11.43;;;42.50;71.40;;;;;;4997982;28;20385;-75
2022/08/15 08:29:50;;;;;;;12.45;11.15;;;43.00;77.80;;;;;;4953692;29;20435;-75
2022/08/15 08:32:43;;;;;;;11.75;10.60;;;44.40;77.40;;;;;;5002873;28;20537;-75
2022/08/15 08:35:38;;;;;;;12.88;11.05;;;44.70;74.70;;;;;;4983874;28;20578;-75
2022/08/15 08:38:37;;;;;;;12.57;11.35;;;42.40;76.00;;;;;;5015993;28;20473;-75
2022/08/15 08:41:25;;;;;;;13.15;12.02;;;39.90;82.30;;;;;;5015799;28;20054;-75
2022/08/15 08:43:59;;;;;;;12.25;11.15;;;39.00;87.50;;;;;;5015521;28;20109;-75
2022/08/15 08:46:30;;;;;;;14.43;13.15;;;38.30;90.70;;;;;;5015889;28;20598;-75
2022/08/15 08:48:57;;;;;;;13.80;12.38;;;37.40;93.40;;;;;;5015468;28;20040;-75
2022/08/15 08:51:42;;;;;;;15.57;14.02;;;39.00;94.90;;;;;;5015833;28;20021;-75
2022/08/15 08:54:22;;;;;;;15.00;13.60;;;42.10;92.60;;;;;;4997727;28;20041;-75
2022/08/15 08:56:53;;;;;;;15.65;14.05;;;43.70;87.30;;;;;;5015460;28;20026;-75
2022/08/15 08:59:26;;;;;;;13.88;12.57;;;41.60;85.00;;;;;;5015868;28;20024;-75
2022/08/15 09:02:27;;;;;;;14.20;12.40;;;43.00;84.10;;;;;;5015705;28;20090;-75
2022/08/15 09:04:58;;;;;;;13.75;12.35;;;41.90;82.50;;;;;;5011507;28;20037;-76
2022/08/15 09:07:30;;;;;;;12.85;11.55;;;41.70;82.40;;;;;;5022600;28;20064;-75
2022/08/15 09:09:58;;;;;;;11.85;10.65;;;40.90;82.40;;;;;;5015372;28;20030;-75
2022/08/15 09:15:17;;;;;;;10.70;8.35;;;43.50;80.20;;;;;;5015179;28;20048;-76
2022/08/15 09:17:46;;;;;;;9.13;8.23;;;43.70;77.20;;;;;;5014400;28;20025;-75
2022/08/15 09:20:19;;;;;;;10.48;8.38;;;43.90;74.00;;;;;;5015206;28;20473;-75
2022/08/15 09:22:47;;;;;;;7.70;6.60;;;44.80;70.40;;;;;;5029486;28;20029;-75
2022/08/15 09:25:12;;;;;;;9.10;8.20;;;44.80;69.30;;;;;;5034832;28;20568;-76
2022/08/15 09:27:49;;;;;;;8.45;7.07;;;45.70;66.70;;;;;;5034940;28;20029;-75
2022/08/15 09:30:17;;;;;;;10.57;9.48;;;46.80;64.20;;;;;;5016726;28;20112;-76
2022/08/15 09:33:28;;;;;;;11.90;10.70;;;46.20;60.80;;;;;;5014751;28;20100;-76
2022/08/15 09:36:22;;;;;;;12.82;10.95;;;46.40;59.00;;;;;;5014930;28;20381;-75
2022/08/15 09:39:01;;;;;;;12.23;11.13;;;46.20;56.90;;;;;;5014896;28;20029;-75
2022/08/15 09:41:58;;;;;;;11.40;10.40;;;45.70;55.30;;;;;;5012491;28;20060;-74
2022/08/15 09:44:32;;;;;;;12.20;10.90;;;45.90;54.10;;;;;;5017928;28;20030;-75
2022/08/15 09:47:27;;;;;;;14.05;12.77;;;46.80;53.60;;;;;;5009740;28;20029;-75
2022/08/15 09:50:34;;;;;;;13.25;11.90;;;46.40;51.30;;;;;;5014659;28;20024;-74
2022/08/15 09:53:31;;;;;;;13.82;12.38;;;46.70;50.80;;;;;;5001857;28;20099;-75
2022/08/15 09:56:04;;;;;;;13.68;12.38;;;46.70;49.30;;;;;;4995781;28;20182;-75
2022/08/15 09:58:35;;;;;;;15.05;12.00;;;45.40;47.20;;;;;;4996703;28;20030;-75
2022/08/15 10:01:08;;;;;;;12.25;11.05;;;45.50;48.40;;;;;;5014439;28;20029;-75
2022/08/15 10:03:45;;;;;;;10.88;9.80;;;45.90;47.10;;;;;;5014787;28;20071;-75
2022/08/15 10:06:16;;;;;;;11.05;10.13;;;45.40;46.10;;;;;;5022236;28;20022;-74
2022/08/15 10:09:09;;;;;;;11.40;10.25;;;45.30;46.50;;;;;;5016325;28;20116;-75
2022/08/15 10:11:40;;;;;;;10.90;9.93;;;45.50;45.90;;;;;;4982493;28;20038;-75
2022/08/15 10:14:14;;;;;;;11.63;10.50;;;45.00;45.20;;;;;;5033921;28;20126;-75
2022/08/15 10:16:40;;;;;;;10.48;9.38;;;46.20;45.30;;;;;;5033783;28;20021;-75
2022/08/15 10:19:25;;;;;;;8.80;8.00;;;46.50;43.40;;;;;;5033836;28;20024;-75
2022/08/15 10:21:55;;;;;;;11.63;10.55;;;46.00;42.40;;;;;;4999096;28;20053;-75
2022/08/15 10:24:38;;;;;;;10.45;8.80;;;46.30;41.60;;;;;;5014405;28;20033;-75
2022/08/15 10:27:20;;;;;;;9.85;9.00;;;44.60;41.50;;;;;;5014127;28;20485;-75
2022/08/15 10:29:49;;;;;;;9.65;8.75;;;44.20;44.30;;;;;;5013701;28;20642;-75
2022/08/15 10:32:28;;;;;;;9.43;8.48;;;45.00;42.70;;;;;;5013146;28;20131;-75
2022/08/15 10:34:58;;;;;;;9.48;8.50;;;45.80;42.50;;;;;;5013616;28;20034;-75
2022/08/15 10:37:53;;;;;;;16.08;8.68;;;45.40;40.10;;;;;;5013741;28;20032;-74
2022/08/15 10:40:36;;;;;;;9.65;8.43;;;44.10;43.90;;;;;;5010687;28;20040;-74
2022/08/15 10:43:11;;;;;;;10.90;8.75;;;44.70;42.00;;;;;;5006468;28;20041;-74
2022/08/15 10:45:46;;;;;;;9.15;8.25;;;44.70;42.00;;;;;;5002369;28;20034;-75
2022/08/15 10:48:52;;;;;;;9.75;8.65;;;44.50;41.40;;;;;;4997480;28;20041;-75
2022/08/15 10:51:38;;;;;;;8.48;6.88;;;43.50;41.60;;;;;;5009972;28;20457;-75
2022/08/15 10:54:38;;;;;;;8.27;7.18;;;42.90;46.00;;;;;;5013448;28;20041;-74
2022/08/15 10:57:07;;;;;;;9.05;7.00;;;42.60;43.80;;;;;;5012298;28;20097;-76
2022/08/15 10:59:48;;;;;;;6.40;5.10;;;42.30;43.40;;;;;;5030154;28;20087;-75
2022/08/15 11:02:26;;;;;;;4.22;3.80;;;41.20;43.30;;;;;;5027265;28;20048;-75
2022/08/15 11:05:00;;;;;;;4.47;3.88;;;40.30;43.30;;;;;;4995579;28;20068;-75
2022/08/15 11:07:28;;;;;;;5.57;3.67;;;38.30;44.40;;;;;;5013083;28;20025;-75
2022/08/15 11:09:59;;;;;;;5.05;4.38;;;37.30;45.00;;;;;;5016082;28;20025;-75
2022/08/15 11:12:30;;;;;;;4.95;4.20;;;36.40;47.00;;;;;;5014559;28;20042;-75
2022/08/15 11:15:04;;;;;;;4.93;3.80;;;35.80;49.80;;;;;;5012714;28;20062;-75
2022/08/15 11:17:32;;;;;;;3.75;3.08;;;36.10;50.30;;;;;;5013119;28;20370;-75
2022/08/15 11:20:04;;;;;;;5.78;3.95;;;35.50;51.40;;;;;;5013150;28;20425;-75
2022/08/15 11:22:37;;;;;;;3.45;3.22;;;34.60;52.70;;;;;;5012722;28;20109;-74
2022/08/15 11:25:13;;;;;;;3.92;3.53;;;33.70;54.80;;;;;;5025054;28;20036;-75
2022/08/15 11:27:38;;;;;;;4.72;3.63;;;33.30;55.40;;;;;;5001095;28;20116;-75
2022/08/15 11:30:08;;;;;;;3.70;3.28;;;33.00;56.60;;;;;;5024301;28;20152;-75
2022/08/15 11:32:38;;;;;;;6.82;3.72;;;32.80;58.50;;;;;;5017839;28;20099;-75
2022/08/15 11:35:27;;;;;;;4.30;3.80;;;32.70;60.40;;;;;;5012499;28;20466;-75
2022/08/15 11:37:56;;;;;;;4.15;3.75;;;32.60;62.20;;;;;;5016297;28;20454;-75
2022/08/15 11:40:32;;;;;;;4.22;3.90;;;33.00;64.90;;;;;;5010298;28;20123;-75
2022/08/15 11:43:01;;;;;;;4.22;3.88;;;33.20;68.70;;;;;;5012970;28;20017;-74
2022/08/15 11:45:33;;;;;;;4.60;3.72;;;33.10;66.50;;;;;;5018837;28;20040;-74
2022/08/15 11:47:59;;;;;;;4.43;3.95;;;33.70;66.70;;;;;;5012103;28;20072;-74
2022/08/15 11:50:33;;;;;;;4.20;3.80;;;34.00;66.90;;;;;;5012436;28;20045;-74
2022/08/15 11:53:03;;;;;;;4.50;4.10;;;34.70;67.20;;;;;;5012576;28;20221;-75
2022/08/15 11:55:32;;;;;;;;;;;34.70;67.50;;;;;;5017861;28;20050;-74
2022/08/15 11:58:09;;;;;;;;;;;34.20;67.20;;;;;;5013094;28;19952;-74
2022/08/15 12:00:46;;;;;;;5.80;4.28;;;34.40;69.40;;;;;;5012428;28;19913;-75
2022/08/15 12:03:32;;;;;;;6.50;4.50;;;34.20;68.30;;;;;;5013035;28;20049;-75
2022/08/15 12:06:22;;;;;;;5.18;4.63;;;34.40;68.00;;;;;;5003678;28;20394;-74
2022/08/15 12:08:48;;;;;;;4.90;4.50;;;34.20;67.40;;;;;;5013528;28;20029;-75
2022/08/15 12:11:14;;;;;;;5.60;5.20;;;34.20;68.30;;;;;;5016585;28;20097;-75
2022/08/15 12:14:01;;;;;;;5.65;4.60;;;34.40;70.00;;;;;;5006826;28;20026;-74
2022/08/15 12:16:29;;;;;;;5.32;4.82;;;34.80;71.20;;;;;;5013482;28;20533;-74
2022/08/15 12:18:54;;;;;;;6.45;5.85;;;34.40;70.30;;;;;;5013349;28;20026;-74
2022/08/15 12:21:21;;;;;;;6.35;5.45;;;34.30;70.30;;;;;;5013181;28;20056;-75
2022/08/15 12:23:59;;;;;;;5.82;4.78;;;34.20;72.20;;;;;;5012066;28;20378;-75
2022/08/15 12:26:28;;;;;;;5.80;5.30;;;34.30;72.60;;;;;;5012284;28;20026;-75
2022/08/15 12:28:55;;;;;;;9.15;5.03;;;34.00;73.20;;;;;;4993484;28;20041;-74
2022/08/15 12:31:36;;;;;;;5.50;4.85;;;33.90;74.30;;;;;;5007423;28;20034;-75
2022/08/15 12:34:02;;;;;;;9.43;5.13;;;34.20;76.10;;;;;;5012877;28;20061;-75
2022/08/15 12:36:29;;;;;;;7.18;5.80;;;34.00;75.70;;;;;;5012852;28;20045;-75
2022/08/15 12:38:54;;;;;;;7.60;5.72;;;34.60;77.30;;;;;;5013143;28;20022;-75
2022/08/15 12:41:20;;;;;;;6.28;4.85;;;34.70;76.70;;;;;;4993077;28;21279;-75
2022/08/15 12:43:46;;;;;;;7.78;6.03;;;34.80;78.20;;;;;;5002471;28;20030;-75
2022/08/15 12:46:11;;;;;;;5.40;4.90;;;34.90;77.70;;;;;;5016282;28;20037;-75
2022/08/15 12:48:39;;;;;;;4.85;4.45;;;34.60;76.40;;;;;;5032638;28;20034;-75
2022/08/15 12:51:07;;;;;;;5.57;4.45;;;34.60;75.20;;;;;;5002798;28;20040;-75
2022/08/15 12:53:33;;;;;;;6.28;4.55;;;34.60;73.70;;;;;;5015033;28;20036;-75
2022/08/15 12:55:59;;;;;;;7.25;5.43;;;34.50;74.50;;;;;;5016332;28;20022;-75
2022/08/15 12:58:26;;;;;;;6.70;5.70;;;34.60;75.20;;;;;;5016615;28;20084;-75
2022/08/15 13:00:57;;;;;;;8.20;6.28;;;34.50;76.30;;;;;;5023195;28;20014;-75
2022/08/15 13:03:27;;;;;;;5.30;4.80;;;34.10;75.60;;;;;;5036277;28;20056;-75
2022/08/15 13:06:03;;;;;;;5.88;4.97;;;33.80;77.10;;;;;;5001008;28;20025;-75
2022/08/15 13:08:29;;;;;;;5.07;4.55;;;33.30;78.70;;;;;;4998870;28;20018;-74
2022/08/15 13:10:55;;;;;;;5.45;4.95;;;33.60;80.50;;;;;;5016107;28;20056;-74
2022/08/15 13:13:21;;;;;;;5.78;5.13;;;33.70;80.20;;;;;;5015901;28;20030;-75
2022/08/15 13:15:48;;;;;;;7.00;5.47;;;33.40;81.40;;;;;;5013964;28;20069;-75